createdAt,value
2018-03-04T00:02:02.190Z,1.00
2018-03-04T00:07:05.864Z,1.10
2018-03-04T00:12:09.114Z,1.10
2018-03-04T00:17:12.347Z,1.30
2018-03-04T00:22:15.558Z,1.20
2018-03-04T00:27:18.764Z,1.20
2018-03-04T00:32:21.976Z,1.10
2018-03-04T00:37:25.195Z,1.10
2018-03-04T00:42:28.807Z,1.40
2018-03-04T00:47:32.850Z,1.20
2018-03-04T00:52:36.340Z,1.30
2018-03-04T00:57:40.052Z,1.10
2018-03-04T01:02:43.305Z,1.10
2018-03-04T01:07:46.548Z,1.10
2018-03-04T01:12:50.928Z,1.00
2018-03-04T01:17:54.282Z,1.00
2018-03-04T01:22:57.515Z,1.10
2018-03-04T01:28:01.047Z,1.10
2018-03-04T01:33:04.277Z,1.10
2018-03-04T01:38:07.597Z,1.00
2018-03-04T01:43:11.239Z,1.10
2018-03-04T01:48:14.504Z,1.10
2018-03-04T01:53:17.844Z,1.10
2018-03-04T01:58:21.061Z,1.00
2018-03-04T02:03:24.375Z,0.90
2018-03-04T02:08:27.625Z,0.90
2018-03-04T02:13:32.266Z,0.70
2018-03-04T02:18:35.971Z,0.70
2018-03-04T02:23:39.289Z,0.70
2018-03-04T02:28:42.884Z,0.70
2018-03-04T02:33:46.105Z,0.70
2018-03-04T02:38:49.831Z,0.70
2018-03-04T02:43:53.065Z,0.70
2018-03-04T02:48:56.287Z,0.80
2018-03-04T02:53:59.509Z,0.90
2018-03-04T02:59:02.837Z,1.00
2018-03-04T03:04:06.546Z,0.90
2018-03-04T03:09:09.770Z,0.90
2018-03-04T03:14:13.376Z,0.80
2018-03-04T03:19:16.991Z,0.70
2018-03-04T03:24:20.633Z,0.60
2018-03-04T03:29:23.901Z,0.60
2018-03-04T03:34:27.612Z,0.40
2018-03-04T03:39:31.374Z,0.10
2018-03-04T03:44:34.621Z,0.10
2018-03-04T03:49:37.834Z,0.00
2018-03-04T03:54:41.357Z,-0.20
2018-03-04T03:59:44.630Z,-0.10
2018-03-04T04:04:47.865Z,-0.20
2018-03-04T04:09:51.174Z,-0.30
2018-03-04T04:14:54.887Z,-0.20
2018-03-04T04:19:58.105Z,-0.30
2018-03-04T04:25:01.745Z,-0.10
2018-03-04T04:30:05.014Z,-0.10
2018-03-04T04:35:08.253Z,-0.10
2018-03-04T04:40:11.459Z,-0.20
2018-03-04T04:45:14.730Z,-0.10
2018-03-04T04:50:18.142Z,0.00
2018-03-04T04:55:21.457Z,0.20
2018-03-04T05:00:25.090Z,0.40
2018-03-04T05:05:28.295Z,0.40
2018-03-04T05:10:31.526Z,0.30
2018-03-04T05:15:34.744Z,0.20
2018-03-04T05:20:38.043Z,0.20
2018-03-04T05:25:41.258Z,0.10
2018-03-04T05:30:44.495Z,0.00
2018-03-04T05:35:48.125Z,-0.40
2018-03-04T05:40:51.737Z,-0.50
2018-03-04T05:45:56.056Z,-0.60
2018-03-04T05:50:59.341Z,-0.70
2018-03-04T05:56:02.569Z,-0.80
2018-03-04T06:01:05.840Z,-1.00
2018-03-04T06:06:09.067Z,-1.10
2018-03-04T06:11:12.305Z,-1.20
2018-03-04T06:16:15.931Z,-1.00
2018-03-04T06:21:19.384Z,-1.00
2018-03-04T06:26:22.617Z,-1.00
2018-03-04T06:31:25.847Z,-1.00
2018-03-04T06:36:29.519Z,-1.30
2018-03-04T06:41:32.772Z,-1.30
2018-03-04T06:46:36.164Z,-1.30
2018-03-04T06:51:39.973Z,-1.30
2018-03-04T06:56:43.209Z,-1.30
2018-03-04T07:01:46.440Z,-1.20
2018-03-04T07:06:49.769Z,-1.00
2018-03-04T07:11:53.188Z,-0.70
2018-03-04T07:16:56.500Z,-0.40
2018-03-04T07:21:59.731Z,0.00
2018-03-04T07:27:03.406Z,0.50
2018-03-04T07:32:06.624Z,0.50
2018-03-04T07:37:09.942Z,0.60
2018-03-04T07:42:13.157Z,0.90
2018-03-04T07:47:16.784Z,1.20
2018-03-04T07:52:20.009Z,1.20
2018-03-04T07:57:23.272Z,1.40
2018-03-04T08:02:27.065Z,1.80
2018-03-04T08:07:30.275Z,2.20
2018-03-04T08:12:33.482Z,2.30
2018-03-04T08:17:36.703Z,2.10
2018-03-04T08:22:39.909Z,1.60
2018-03-04T08:27:54.996Z,1.30
2018-03-04T08:32:58.196Z,1.30
2018-03-04T08:38:01.519Z,1.90
2018-03-04T08:43:05.148Z,3.30
2018-03-04T08:48:08.432Z,3.30
2018-03-04T08:53:12.047Z,4.20
2018-03-04T08:58:15.751Z,4.30
2018-03-04T09:03:19.058Z,4.30
2018-03-04T09:08:22.264Z,4.30
2018-03-04T09:13:25.471Z,4.70
2018-03-04T09:18:29.080Z,4.80
2018-03-04T09:23:32.693Z,4.80
2018-03-04T09:28:35.964Z,4.80
2018-03-04T09:33:39.176Z,4.60
2018-03-04T09:38:42.387Z,4.90
2018-03-04T09:43:45.588Z,4.80
2018-03-04T09:48:49.821Z,4.80
2018-03-04T09:53:53.071Z,4.90
2018-03-04T09:58:56.699Z,5.30
2018-03-04T10:03:59.930Z,5.30
2018-03-04T10:09:03.149Z,5.30
2018-03-04T10:14:06.488Z,5.50
2018-03-04T10:19:10.087Z,5.50
2018-03-04T10:24:13.729Z,5.70
2018-03-04T10:29:16.948Z,5.70
2018-03-04T10:34:20.165Z,5.90
2018-03-04T10:39:23.382Z,6.20
2018-03-04T10:44:26.642Z,6.70
2018-03-04T10:49:30.001Z,6.80
2018-03-04T10:54:33.352Z,7.20
2018-03-04T10:59:37.635Z,7.30
2018-03-04T11:04:41.066Z,7.50
2018-03-04T11:09:44.856Z,7.60
2018-03-04T11:14:48.190Z,7.70
2018-03-04T11:19:51.404Z,8.80
2018-03-04T11:24:55.054Z,12.20
2018-03-04T11:29:58.290Z,12.20
2018-03-04T11:35:01.629Z,14.40
2018-03-04T11:40:04.929Z,15.00
2018-03-04T11:45:08.186Z,15.50
2018-03-04T11:50:11.409Z,16.90
2018-03-04T11:55:14.744Z,16.90
2018-03-04T12:00:18.020Z,17.10
2018-03-04T12:05:21.247Z,19.20
2018-03-04T12:10:24.468Z,18.00
2018-03-04T12:15:28.093Z,18.90
2018-03-04T12:20:31.716Z,19.60
2018-03-04T12:25:34.993Z,19.60
2018-03-04T12:30:38.300Z,20.20
2018-03-04T12:35:41.952Z,20.10
2018-03-04T12:40:45.166Z,20.10
2018-03-04T12:45:48.369Z,20.10
2018-03-04T12:50:51.731Z,21.10
2018-03-04T12:55:54.943Z,20.40
2018-03-04T13:00:58.265Z,20.00
2018-03-04T13:06:01.491Z,21.10
2018-03-04T13:11:04.729Z,21.80
2018-03-04T13:16:07.956Z,21.80
2018-03-04T13:21:11.298Z,21.80
2018-03-04T13:26:14.523Z,21.60
2018-03-04T13:31:17.735Z,17.90
2018-03-04T13:36:20.951Z,14.50
2018-03-04T13:41:24.217Z,13.00
2018-03-04T13:46:27.493Z,12.70
2018-03-04T13:51:30.704Z,12.40
2018-03-04T13:56:34.412Z,13.20
2018-03-04T14:01:37.616Z,13.20
2018-03-04T14:06:40.832Z,12.90
2018-03-04T14:11:44.485Z,12.80
2018-03-04T14:16:47.854Z,12.80
2018-03-04T14:21:51.483Z,13.00
2018-03-04T14:26:55.133Z,13.30
2018-03-04T14:31:58.504Z,13.30
2018-03-04T14:37:02.506Z,12.90
2018-03-04T14:42:05.990Z,12.90
2018-03-04T14:47:09.195Z,12.90
2018-03-04T14:52:13.020Z,14.00
2018-03-04T14:57:16.274Z,14.00
2018-03-04T15:02:19.549Z,14.40
2018-03-04T15:07:22.755Z,14.60
2018-03-04T15:12:26.470Z,13.60
2018-03-04T15:17:29.729Z,13.60
2018-03-04T15:22:32.973Z,13.20
2018-03-04T15:27:36.293Z,12.90
2018-03-04T15:32:39.696Z,13.00
2018-03-04T15:37:42.938Z,12.60
2018-03-04T15:42:46.283Z,12.30
2018-03-04T15:47:49.641Z,12.00
2018-03-04T15:52:53.254Z,12.50
2018-03-04T15:57:56.991Z,12.40
2018-03-04T16:03:00.354Z,12.40
2018-03-04T16:08:04.070Z,12.10
2018-03-04T16:13:07.359Z,12.10
2018-03-04T16:18:10.714Z,11.70
2018-03-04T16:23:14.065Z,11.40
2018-03-04T16:28:17.285Z,11.10
2018-03-04T16:33:20.709Z,10.90
2018-03-04T16:38:24.428Z,10.80
2018-03-04T16:43:28.037Z,10.60
2018-03-04T16:48:31.345Z,10.60
2018-03-04T16:53:34.561Z,10.40
2018-03-04T16:58:38.267Z,9.80
2018-03-04T17:03:41.483Z,9.80
2018-03-04T17:08:46.042Z,9.40
2018-03-04T17:13:49.260Z,9.40
2018-03-04T17:18:52.557Z,9.30
2018-03-04T17:23:55.851Z,9.20
2018-03-04T17:28:59.059Z,9.10
2018-03-04T17:34:02.292Z,8.90
2018-03-04T17:39:06.146Z,8.60
2018-03-04T17:44:09.355Z,8.60
2018-03-04T17:49:12.585Z,8.40
2018-03-04T17:54:16.277Z,8.00
2018-03-04T17:59:19.521Z,8.00
2018-03-04T18:04:22.754Z,7.70
2018-03-04T18:09:25.992Z,7.60
2018-03-04T18:14:29.209Z,7.50
2018-03-04T18:19:33.460Z,7.10
2018-03-04T18:24:46.112Z,7.20
2018-03-04T18:29:50.178Z,7.00
2018-03-04T18:34:53.825Z,6.80
2018-03-04T18:39:57.511Z,6.80
2018-03-04T18:45:00.867Z,6.70
2018-03-04T18:50:04.182Z,6.70
2018-03-04T18:55:07.391Z,6.70
2018-03-04T19:00:10.642Z,6.40
2018-03-04T19:05:13.880Z,6.20
2018-03-04T19:10:17.203Z,6.30
2018-03-04T19:15:20.402Z,6.20
2018-03-04T19:20:23.863Z,6.20
2018-03-04T19:25:27.115Z,6.20
2018-03-04T19:30:30.339Z,6.20
2018-03-04T19:35:33.680Z,6.00
2018-03-04T19:40:36.944Z,5.90
2018-03-04T19:45:40.144Z,5.70
2018-03-04T19:50:43.338Z,5.40
2018-03-04T19:55:46.671Z,5.20
2018-03-04T20:00:50.214Z,5.10
2018-03-04T20:05:53.658Z,5.00
2018-03-04T20:10:56.932Z,5.10
2018-03-04T20:16:00.558Z,5.20
2018-03-04T20:21:04.262Z,5.30
2018-03-04T20:26:07.538Z,5.30
2018-03-04T20:31:11.041Z,5.40
2018-03-04T20:36:14.420Z,5.20
2018-03-04T20:41:17.670Z,5.00
2018-03-04T20:46:20.899Z,4.90
2018-03-04T20:51:24.144Z,4.90
2018-03-04T20:56:27.426Z,4.90
2018-03-04T21:01:31.136Z,4.80
2018-03-04T21:06:34.933Z,4.70
2018-03-04T21:11:38.348Z,4.70
2018-03-04T21:16:41.669Z,4.60
2018-03-04T21:21:45.378Z,4.60
2018-03-04T21:26:48.704Z,4.60
2018-03-04T21:31:52.405Z,4.50
2018-03-04T21:36:55.681Z,4.50
2018-03-04T21:41:59.424Z,4.60
2018-03-04T21:47:02.937Z,4.60
2018-03-04T21:52:06.345Z,4.60
2018-03-04T21:57:09.552Z,4.70
2018-03-04T22:02:13.031Z,4.70
2018-03-04T22:07:16.422Z,4.80
2018-03-04T22:12:19.722Z,4.80
2018-03-04T22:17:23.288Z,4.80
2018-03-04T22:22:26.651Z,4.90
2018-03-04T22:27:30.060Z,4.90
2018-03-04T22:32:33.442Z,5.00
2018-03-04T22:37:36.860Z,4.90
2018-03-04T22:42:40.243Z,5.00
2018-03-04T22:47:43.515Z,5.10
2018-03-04T22:52:47.767Z,5.30
2018-03-04T22:57:51.001Z,5.40
2018-03-04T23:02:54.434Z,5.40
2018-03-04T23:07:57.683Z,5.50
2018-03-04T23:13:00.969Z,5.60
2018-03-04T23:18:04.440Z,5.60
2018-03-04T23:23:07.718Z,5.50
2018-03-04T23:28:11.331Z,5.50
2018-03-04T23:33:14.542Z,5.50
2018-03-04T23:38:18.203Z,5.50
2018-03-04T23:43:21.459Z,5.50
2018-03-04T23:48:25.068Z,5.60
2018-03-04T23:53:28.275Z,5.60
2018-03-04T23:58:31.490Z,5.50
